createdAt,value
2017-09-04T00:00:22.060Z,24.1
2017-09-04T00:01:02.511Z,24.06
2017-09-04T00:01:42.970Z,24.04
2017-09-04T00:02:23.433Z,24.01
2017-09-04T00:03:03.886Z,24.04
2017-09-04T00:03:44.362Z,24.1
2017-09-04T00:04:24.790Z,24.03
2017-09-04T00:05:05.246Z,23.95
2017-09-04T00:05:45.701Z,23.95
2017-09-04T00:06:26.149Z,23.91
2017-09-04T00:07:06.606Z,23.99
2017-09-04T00:07:47.066Z,24.01
2017-09-04T00:08:27.524Z,23.95
2017-09-04T00:09:07.979Z,24.01
2017-09-04T00:09:48.433Z,23.99
2017-09-04T00:10:28.886Z,23.95
2017-09-04T00:11:09.345Z,23.94
2017-09-04T00:11:49.792Z,23.94
2017-09-04T00:12:30.245Z,23.99
2017-09-04T00:13:10.694Z,23.94
2017-09-04T00:13:51.146Z,23.92
2017-09-04T00:14:31.596Z,23.92
2017-09-04T00:15:12.033Z,23.92
2017-09-04T00:15:52.489Z,23.89
2017-09-04T00:16:32.939Z,23.99
2017-09-04T00:17:13.391Z,23.91
2017-09-04T00:17:53.851Z,23.92
2017-09-04T00:18:34.302Z,23.91
2017-09-04T00:19:14.757Z,23.91
2017-09-04T00:19:55.212Z,23.92
2017-09-04T00:20:35.666Z,23.96
2017-09-04T00:21:16.117Z,23.95
2017-09-04T00:21:56.588Z,23.99
2017-09-04T00:22:37.041Z,23.94
2017-09-04T00:23:17.496Z,23.94
2017-09-04T00:23:57.948Z,23.85
2017-09-04T00:24:38.400Z,23.91
2017-09-04T00:25:18.847Z,23.92
2017-09-04T00:25:59.307Z,23.94
2017-09-04T00:26:39.769Z,23.92
2017-09-04T00:27:20.234Z,23.94
2017-09-04T00:28:00.764Z,23.91
2017-09-04T00:28:41.214Z,23.88
2017-09-04T00:29:21.680Z,23.89
2017-09-04T00:30:02.148Z,23.92
2017-09-04T00:30:42.601Z,23.92
2017-09-04T00:31:23.056Z,23.91
2017-09-04T00:32:03.501Z,23.94
2017-09-04T00:32:43.953Z,23.95
2017-09-04T00:33:24.412Z,23.92
2017-09-04T00:34:04.872Z,23.92
2017-09-04T00:36:02.670Z,23.89
2017-09-04T00:36:43.127Z,23.92
2017-09-04T00:37:23.586Z,23.92
2017-09-04T00:38:04.038Z,23.92
2017-09-04T00:38:44.482Z,23.91
2017-09-04T00:39:24.932Z,23.94
2017-09-04T00:40:05.377Z,23.92
2017-09-04T00:40:45.828Z,23.88
2017-09-04T00:41:26.339Z,23.96
2017-09-04T00:42:06.787Z,23.88
2017-09-04T00:42:47.228Z,23.91
2017-09-04T00:43:27.852Z,23.86
2017-09-04T00:44:08.304Z,23.86
2017-09-04T00:44:48.751Z,23.82
2017-09-04T00:45:29.303Z,23.84
2017-09-04T00:46:09.759Z,23.95
2017-09-04T00:46:50.218Z,23.84
2017-09-04T00:47:30.679Z,23.88
2017-09-04T00:48:11.131Z,23.91
2017-09-04T00:48:51.576Z,23.84
2017-09-04T00:49:32.027Z,23.91
2017-09-04T00:50:12.476Z,23.85
2017-09-04T00:50:52.924Z,23.81
2017-09-04T00:51:33.375Z,23.81
2017-09-04T00:52:13.834Z,23.88
2017-09-04T00:52:54.291Z,23.82
2017-09-04T00:53:34.738Z,23.85
2017-09-04T00:54:15.192Z,23.84
2017-09-04T00:54:55.646Z,23.88
2017-09-04T00:55:36.111Z,23.88
2017-09-04T00:56:16.564Z,23.81
2017-09-04T00:56:57.018Z,23.85
2017-09-04T00:57:37.483Z,23.84
2017-09-04T00:58:17.935Z,23.88
2017-09-04T00:58:58.398Z,23.84
2017-09-04T00:59:38.845Z,23.82
2017-09-04T01:00:19.292Z,23.77
2017-09-04T01:00:59.750Z,23.74
2017-09-04T01:01:40.201Z,23.85
2017-09-04T01:02:20.661Z,23.76
2017-09-04T01:03:01.114Z,23.85
2017-09-04T01:03:41.570Z,23.77
2017-09-04T01:04:22.024Z,23.86
2017-09-04T01:05:02.479Z,23.86
2017-09-04T01:05:42.937Z,23.79
2017-09-04T01:06:23.395Z,23.81
2017-09-04T01:07:03.845Z,23.73
2017-09-04T01:07:44.302Z,23.79
2017-09-04T01:08:24.759Z,23.82
2017-09-04T01:09:05.220Z,23.82
2017-09-04T01:09:45.683Z,23.71
2017-09-04T01:10:26.140Z,23.74
2017-09-04T01:11:06.587Z,23.81
2017-09-04T01:11:47.036Z,23.81
2017-09-04T01:12:27.497Z,23.76
2017-09-04T01:13:07.945Z,23.74
2017-09-04T01:13:48.404Z,23.76
2017-09-04T01:14:28.859Z,23.79
2017-09-04T01:15:09.315Z,23.79
2017-09-04T01:15:49.765Z,23.81
2017-09-04T01:16:30.219Z,23.82
2017-09-04T01:17:10.674Z,23.77
2017-09-04T01:17:51.119Z,23.69
2017-09-04T01:18:31.564Z,23.66
2017-09-04T01:19:12.019Z,23.76
2017-09-04T01:19:52.481Z,23.66
2017-09-04T01:20:32.941Z,23.71
2017-09-04T01:21:13.403Z,23.79
2017-09-04T01:21:53.856Z,23.7
2017-09-04T01:22:34.323Z,23.71
2017-09-04T01:23:14.778Z,23.71
2017-09-04T01:23:55.240Z,23.73
2017-09-04T01:24:35.695Z,23.71
2017-09-04T01:25:16.151Z,23.73
2017-09-04T01:25:56.605Z,23.71
2017-09-04T01:26:37.058Z,23.71
2017-09-04T01:27:17.518Z,23.7
2017-09-04T01:27:57.974Z,23.74
2017-09-04T01:28:38.423Z,23.79
2017-09-04T01:29:18.876Z,23.74
2017-09-04T01:29:59.337Z,23.71
2017-09-04T01:30:39.809Z,23.73
2017-09-04T01:31:20.230Z,23.69
2017-09-04T01:32:00.683Z,23.69
2017-09-04T01:32:41.133Z,23.67
2017-09-04T01:33:21.591Z,23.73
2017-09-04T01:34:02.041Z,23.71
2017-09-04T01:34:42.502Z,23.71
2017-09-04T01:35:22.945Z,23.67
2017-09-04T01:36:03.408Z,23.73
2017-09-04T01:36:43.853Z,23.71
2017-09-04T01:37:24.316Z,23.67
2017-09-04T01:38:04.787Z,23.69
2017-09-04T01:38:45.238Z,23.69
2017-09-04T01:39:25.690Z,23.7
2017-09-04T01:40:06.145Z,23.66
2017-09-04T01:40:46.597Z,23.73
2017-09-04T01:41:27.051Z,23.69
2017-09-04T01:42:07.497Z,23.64
2017-09-04T01:42:47.959Z,23.73
2017-09-04T01:43:28.417Z,23.67
2017-09-04T01:44:08.874Z,23.74
2017-09-04T01:44:49.343Z,23.66
2017-09-04T01:45:29.797Z,23.71
2017-09-04T01:46:10.244Z,23.71
2017-09-04T01:46:50.702Z,23.77
2017-09-04T01:47:31.153Z,23.66
2017-09-04T01:48:11.612Z,23.73
2017-09-04T01:48:52.064Z,23.69
2017-09-04T01:49:32.515Z,23.64
2017-09-04T01:50:12.966Z,23.76
2017-09-04T01:50:53.419Z,23.66
2017-09-04T01:51:33.868Z,23.66
2017-09-04T01:52:14.334Z,23.76
2017-09-04T01:52:54.795Z,23.7
2017-09-04T01:53:35.239Z,23.66
2017-09-04T01:54:15.698Z,23.7
2017-09-04T01:54:56.154Z,23.69
2017-09-04T01:55:36.676Z,23.73
2017-09-04T01:56:17.127Z,23.71
2017-09-04T01:56:57.582Z,23.76
2017-09-04T01:57:38.110Z,23.73
2017-09-04T01:58:18.571Z,23.7
2017-09-04T01:58:59.022Z,23.79
2017-09-04T01:59:39.504Z,23.71
2017-09-04T02:00:19.963Z,23.71
2017-09-04T02:01:00.416Z,23.64
2017-09-04T02:01:40.877Z,23.73
2017-09-04T02:02:21.328Z,23.63
2017-09-04T02:03:01.781Z,23.64
2017-09-04T02:03:42.285Z,23.7
2017-09-04T02:04:22.737Z,23.63
2017-09-04T02:05:03.188Z,23.64
2017-09-04T02:05:43.634Z,23.71
2017-09-04T02:06:24.083Z,23.63
2017-09-04T02:07:04.536Z,23.7
2017-09-04T02:07:45.007Z,23.64
2017-09-04T02:08:25.448Z,23.7
2017-09-04T02:09:05.896Z,23.66
2017-09-04T02:09:46.349Z,23.69
2017-09-04T02:10:26.806Z,23.59
2017-09-04T02:11:07.268Z,23.66
2017-09-04T02:11:47.725Z,23.67
2017-09-04T02:12:28.177Z,23.67
2017-09-04T02:13:08.645Z,23.66
2017-09-04T02:13:49.101Z,23.69
2017-09-04T02:14:29.555Z,23.63
2017-09-04T02:15:10.012Z,23.64
2017-09-04T02:15:50.467Z,23.63
2017-09-04T02:16:30.923Z,23.64
2017-09-04T02:17:11.380Z,23.66
2017-09-04T02:17:51.829Z,23.66
2017-09-04T02:18:32.286Z,23.67
2017-09-04T02:19:12.736Z,23.64
2017-09-04T02:19:53.190Z,23.63
2017-09-04T02:20:33.635Z,23.67
2017-09-04T02:21:14.083Z,23.67
2017-09-04T02:21:54.543Z,23.67
2017-09-04T02:22:34.999Z,23.7
2017-09-04T02:23:15.457Z,23.63
2017-09-04T02:23:55.898Z,23.63
2017-09-04T02:24:36.351Z,23.67
2017-09-04T02:25:16.801Z,23.69
2017-09-04T02:25:57.256Z,23.67
2017-09-04T02:26:37.705Z,23.66
2017-09-04T02:27:18.169Z,23.66
2017-09-04T02:27:58.624Z,23.62
2017-09-04T02:28:39.070Z,23.62
2017-09-04T02:29:19.555Z,23.58
2017-09-04T02:29:59.968Z,23.64
2017-09-04T02:30:40.418Z,23.64
2017-09-04T02:31:20.877Z,23.58
2017-09-04T02:32:01.317Z,23.55
2017-09-04T02:32:41.761Z,23.62
2017-09-04T02:33:22.212Z,23.64
2017-09-04T02:34:02.662Z,23.66
2017-09-04T02:34:43.117Z,23.59
2017-09-04T02:35:23.578Z,23.66
2017-09-04T02:36:04.026Z,23.66
2017-09-04T02:36:44.500Z,23.62
2017-09-04T02:37:24.927Z,23.59
2017-09-04T02:38:05.402Z,23.56
2017-09-04T02:38:45.840Z,23.55
2017-09-04T02:39:26.299Z,23.58
2017-09-04T02:40:06.758Z,23.55
2017-09-04T02:40:47.215Z,23.62
2017-09-04T02:41:27.670Z,23.54
2017-09-04T02:42:08.136Z,23.58
2017-09-04T02:42:48.580Z,23.56
2017-09-04T02:43:29.122Z,23.56
2017-09-04T02:44:09.578Z,23.58
2017-09-04T02:44:50.036Z,23.59
2017-09-04T02:45:30.512Z,23.55
2017-09-04T02:46:10.969Z,23.54
2017-09-04T02:46:51.430Z,23.59
2017-09-04T02:47:31.874Z,23.56
2017-09-04T02:48:12.325Z,23.67
2017-09-04T02:48:52.785Z,23.58
2017-09-04T02:49:33.245Z,23.58
2017-09-04T02:50:13.700Z,23.59
2017-09-04T02:50:54.144Z,23.56
2017-09-04T02:51:34.604Z,23.58
2017-09-04T02:52:15.068Z,23.56
2017-09-04T02:52:55.513Z,23.54
2017-09-04T02:53:35.965Z,23.58
2017-09-04T02:54:16.418Z,23.59
2017-09-04T02:54:56.891Z,23.62
2017-09-04T02:55:37.353Z,23.59
2017-09-04T02:56:17.808Z,23.56
2017-09-04T02:56:58.263Z,23.58
2017-09-04T02:57:38.711Z,23.58
2017-09-04T02:58:19.171Z,23.59
2017-09-04T02:58:59.655Z,23.59
2017-09-04T02:59:40.074Z,23.56
2017-09-04T03:00:20.522Z,23.55
2017-09-04T03:01:01.085Z,23.59
2017-09-04T03:01:41.509Z,23.52
2017-09-04T03:02:21.970Z,23.55
2017-09-04T03:03:02.533Z,23.58
2017-09-04T03:03:42.962Z,23.56
2017-09-04T03:04:23.414Z,23.52
2017-09-04T03:05:03.864Z,23.55
2017-09-04T03:05:44.317Z,23.49
2017-09-04T03:06:24.778Z,23.51
2017-09-04T03:07:05.234Z,23.47
2017-09-04T03:07:45.699Z,23.45
2017-09-04T03:08:26.155Z,23.47
2017-09-04T03:09:06.613Z,23.37
2017-09-04T03:09:47.062Z,23.45
2017-09-04T03:10:27.521Z,23.49
2017-09-04T03:11:07.974Z,23.45
2017-09-04T03:11:48.429Z,23.47
2017-09-04T03:12:28.889Z,23.4
2017-09-04T03:13:09.352Z,23.36
2017-09-04T03:13:49.800Z,23.47
2017-09-04T03:14:30.261Z,23.44
2017-09-04T03:15:10.726Z,23.37
2017-09-04T03:15:51.181Z,23.4
2017-09-04T03:16:31.635Z,23.33
2017-09-04T03:17:12.085Z,23.4
2017-09-04T03:17:52.541Z,23.39
2017-09-04T03:18:32.990Z,23.45
2017-09-04T03:19:13.442Z,23.4
2017-09-04T03:19:53.893Z,23.34
2017-09-04T03:20:34.343Z,23.48
2017-09-04T03:21:14.799Z,23.44
2017-09-04T03:21:55.252Z,23.39
2017-09-04T03:22:35.702Z,23.49
2017-09-04T03:23:16.242Z,23.44
2017-09-04T03:23:56.693Z,23.47
2017-09-04T03:24:37.147Z,23.34
2017-09-04T03:25:17.602Z,23.42
2017-09-04T03:25:58.053Z,23.42
2017-09-04T03:26:38.505Z,23.47
2017-09-04T03:27:18.968Z,23.49
2017-09-04T03:27:59.419Z,23.39
2017-09-04T03:28:39.883Z,23.45
2017-09-04T03:29:20.344Z,23.42
2017-09-04T03:30:00.793Z,23.47
2017-09-04T03:30:41.239Z,23.47
2017-09-04T03:31:21.748Z,23.49
2017-09-04T03:32:02.205Z,23.39
2017-09-04T03:32:42.662Z,23.42
2017-09-04T03:33:23.170Z,23.48
2017-09-04T03:34:03.626Z,23.42
2017-09-04T03:34:44.074Z,23.44
2017-09-04T03:35:24.524Z,23.32
2017-09-04T03:36:04.983Z,23.32
2017-09-04T03:36:45.445Z,23.45
2017-09-04T03:37:25.901Z,23.47
2017-09-04T03:38:06.367Z,23.37
2017-09-04T03:38:46.830Z,23.44
2017-09-04T03:39:27.288Z,23.51
2017-09-04T03:40:07.754Z,23.48
2017-09-04T03:40:48.209Z,23.48
2017-09-04T03:41:28.665Z,23.47
2017-09-04T03:42:09.119Z,23.42
2017-09-04T03:42:49.571Z,23.42
2017-09-04T03:43:30.028Z,23.44
2017-09-04T03:44:10.486Z,23.39
2017-09-04T03:44:50.934Z,23.52
2017-09-04T03:45:31.391Z,23.44
2017-09-04T03:46:11.851Z,23.45
2017-09-04T03:46:52.305Z,23.44
2017-09-04T03:47:32.746Z,23.45
2017-09-04T03:48:13.205Z,23.49
2017-09-04T03:48:53.667Z,23.39
2017-09-04T03:49:34.128Z,23.44
2017-09-04T03:50:14.579Z,23.45
2017-09-04T03:50:55.035Z,23.45
2017-09-04T03:51:35.485Z,23.39
2017-09-04T03:52:15.941Z,23.47
2017-09-04T03:52:56.402Z,23.4
2017-09-04T03:53:36.861Z,23.45
2017-09-04T03:54:17.311Z,23.45
2017-09-04T03:54:57.763Z,23.42
2017-09-04T03:55:38.222Z,23.37
2017-09-04T03:56:18.673Z,23.48
2017-09-04T03:56:59.139Z,23.48
2017-09-04T03:57:39.598Z,23.42
2017-09-04T03:58:20.057Z,23.51
2017-09-04T03:59:00.495Z,23.32
2017-09-04T03:59:40.941Z,23.42
2017-09-04T04:00:21.404Z,23.47
2017-09-04T04:01:01.860Z,23.39
2017-09-04T04:01:42.317Z,23.44
2017-09-04T04:02:22.760Z,23.42
2017-09-04T04:03:03.215Z,23.39
2017-09-04T04:03:43.673Z,23.44
2017-09-04T04:04:24.122Z,23.36
2017-09-04T04:05:04.582Z,23.36
2017-09-04T04:05:45.029Z,23.47
2017-09-04T04:06:25.488Z,23.37
2017-09-04T04:07:05.990Z,23.47
2017-09-04T04:07:46.439Z,23.33
2017-09-04T04:08:26.896Z,23.39
2017-09-04T04:09:07.357Z,23.36
2017-09-04T04:09:47.804Z,23.33
2017-09-04T04:10:28.343Z,23.42
2017-09-04T04:11:08.793Z,23.47
2017-09-04T04:11:49.252Z,23.32
2017-09-04T04:12:29.759Z,23.37
2017-09-04T04:13:10.205Z,23.34
2017-09-04T04:13:50.653Z,23.44
2017-09-04T04:14:31.118Z,23.47
2017-09-04T04:15:11.621Z,23.48
2017-09-04T04:15:52.033Z,23.45
2017-09-04T04:16:32.480Z,23.44
2017-09-04T04:17:12.931Z,23.42
2017-09-04T04:17:53.397Z,23.48
2017-09-04T04:18:33.847Z,23.45
2017-09-04T04:19:14.300Z,23.44
2017-09-04T04:19:54.760Z,23.4
2017-09-04T04:20:35.316Z,23.44
2017-09-04T04:21:15.777Z,23.47
2017-09-04T04:21:56.228Z,23.45
2017-09-04T04:22:36.685Z,23.39
2017-09-04T04:23:17.136Z,23.44
2017-09-04T04:23:57.593Z,23.36
2017-09-04T04:26:10.494Z,23.48
2017-09-04T04:26:50.945Z,23.39
2017-09-04T04:27:31.397Z,23.45
2017-09-04T04:28:11.846Z,23.42
2017-09-04T04:28:52.290Z,23.47
2017-09-04T04:29:32.746Z,23.48
2017-09-04T04:30:13.206Z,23.45
2017-09-04T04:30:53.661Z,23.49
2017-09-04T04:31:34.234Z,23.47
2017-09-04T04:32:14.681Z,23.52
2017-09-04T04:32:55.130Z,23.51
2017-09-04T04:33:35.587Z,23.47
2017-09-04T04:34:16.149Z,23.52
2017-09-04T04:34:56.598Z,23.51
2017-09-04T04:35:37.047Z,23.54
2017-09-04T04:36:17.501Z,23.49
2017-09-04T04:36:57.957Z,23.51
2017-09-04T04:37:38.392Z,23.55
2017-09-04T04:38:18.840Z,23.51
2017-09-04T04:38:59.293Z,23.49
2017-09-04T04:39:39.750Z,23.52
2017-09-04T04:40:20.204Z,23.49
2017-09-04T04:41:00.652Z,23.54
2017-09-04T04:41:41.108Z,23.48
2017-09-04T04:42:21.591Z,23.52
2017-09-04T04:43:02.042Z,23.49
2017-09-04T04:43:42.488Z,23.49
2017-09-04T04:44:22.972Z,23.51
2017-09-04T04:45:03.430Z,23.45
2017-09-04T04:45:43.888Z,23.49
2017-09-04T04:46:24.430Z,23.51
2017-09-04T04:47:04.883Z,23.52
2017-09-04T04:47:45.360Z,23.51
2017-09-04T04:48:25.846Z,23.51
2017-09-04T04:49:06.247Z,23.51
2017-09-04T04:49:46.692Z,23.48
2017-09-04T04:50:27.140Z,23.47
2017-09-04T04:51:07.589Z,23.54
2017-09-04T04:51:48.046Z,23.51
2017-09-04T04:52:28.495Z,23.48
2017-09-04T04:53:09.030Z,23.52
2017-09-04T04:53:49.408Z,23.47
2017-09-04T04:54:29.971Z,23.51
2017-09-04T04:55:10.587Z,23.51
2017-09-04T04:55:51.045Z,23.45
2017-09-04T04:56:31.507Z,23.48
2017-09-04T04:57:11.967Z,23.52
2017-09-04T04:57:52.415Z,23.49
2017-09-04T04:58:32.874Z,23.45
2017-09-04T04:59:13.315Z,23.45
2017-09-04T04:59:53.766Z,23.48
2017-09-04T05:00:34.216Z,23.51
2017-09-04T05:01:14.663Z,23.51
2017-09-04T05:01:55.135Z,23.49
2017-09-04T05:02:35.591Z,23.48
2017-09-04T05:03:16.048Z,23.45
2017-09-04T05:03:56.517Z,23.48
2017-09-04T05:04:36.960Z,23.49
2017-09-04T05:05:17.414Z,23.51
2017-09-04T05:05:57.852Z,23.44
2017-09-04T05:06:38.301Z,23.52
2017-09-04T05:07:18.756Z,23.51
2017-09-04T05:08:00.255Z,23.44
2017-09-04T05:08:40.718Z,23.52
2017-09-04T05:09:21.171Z,23.51
2017-09-04T05:10:01.620Z,23.48
2017-09-04T05:10:42.071Z,23.48
2017-09-04T05:11:22.524Z,23.48
2017-09-04T05:12:02.976Z,23.48
2017-09-04T05:12:43.425Z,23.51
2017-09-04T05:13:23.873Z,23.47
2017-09-04T05:14:04.315Z,23.49
2017-09-04T05:14:44.763Z,23.52
2017-09-04T05:15:25.219Z,23.51
2017-09-04T05:16:05.680Z,23.45
2017-09-04T05:16:46.144Z,23.52
2017-09-04T05:17:26.716Z,23.51
2017-09-04T05:18:07.180Z,23.45
2017-09-04T05:18:47.621Z,23.52
2017-09-04T05:19:28.066Z,23.54
2017-09-04T05:20:08.517Z,23.47
2017-09-04T05:20:48.965Z,23.51
2017-09-04T05:21:29.427Z,23.51
2017-09-04T05:22:09.878Z,23.52
2017-09-04T05:22:50.335Z,23.56
2017-09-04T05:23:30.793Z,23.47
2017-09-04T05:24:11.240Z,23.49
2017-09-04T05:24:51.699Z,23.48
2017-09-04T05:25:32.150Z,23.52
2017-09-04T05:26:12.603Z,23.49
2017-09-04T05:26:53.059Z,23.52
2017-09-04T05:27:33.512Z,23.52
2017-09-04T05:28:13.968Z,23.51
2017-09-04T05:28:54.417Z,23.54
2017-09-04T05:29:34.874Z,23.55
2017-09-04T05:30:15.328Z,23.52
2017-09-04T05:30:55.793Z,23.51
2017-09-04T05:31:36.246Z,23.54
2017-09-04T05:32:16.722Z,23.48
2017-09-04T05:32:57.174Z,23.52
2017-09-04T05:33:37.625Z,23.51
2017-09-04T05:34:18.154Z,23.47
2017-09-04T05:34:58.608Z,23.54
2017-09-04T05:35:39.050Z,23.52
2017-09-04T05:36:19.494Z,23.52
2017-09-04T05:36:59.940Z,23.55
2017-09-04T05:37:40.381Z,23.48
2017-09-04T05:38:20.827Z,23.47
2017-09-04T05:39:01.290Z,23.51
2017-09-04T05:39:41.730Z,23.51
2017-09-04T05:40:22.182Z,23.52
2017-09-04T05:41:02.639Z,23.52
2017-09-04T05:41:43.086Z,23.54
2017-09-04T05:42:23.537Z,23.52
2017-09-04T05:43:03.978Z,23.49
2017-09-04T05:43:44.416Z,23.55
2017-09-04T05:44:24.900Z,23.58
2017-09-04T05:45:05.342Z,23.56
2017-09-04T05:45:45.789Z,23.51
2017-09-04T05:46:26.301Z,23.56
2017-09-04T05:47:06.736Z,23.55
2017-09-04T05:47:47.199Z,23.59
2017-09-04T05:48:27.657Z,23.54
2017-09-04T05:49:08.099Z,23.52
2017-09-04T05:49:48.549Z,23.54
2017-09-04T05:50:28.998Z,23.59
2017-09-04T05:51:09.449Z,23.56
2017-09-04T05:51:49.901Z,23.59
2017-09-04T05:52:30.340Z,23.58
2017-09-04T05:53:10.795Z,23.59
2017-09-04T05:53:51.242Z,23.54
2017-09-04T05:54:31.693Z,23.59
2017-09-04T05:55:12.135Z,23.55
2017-09-04T05:55:52.612Z,23.59
2017-09-04T05:56:33.068Z,23.58
2017-09-04T05:57:13.526Z,23.56
2017-09-04T05:57:53.963Z,23.56
2017-09-04T05:58:34.423Z,23.58
2017-09-04T05:59:14.887Z,23.55
2017-09-04T05:59:55.340Z,23.56
2017-09-04T06:00:35.791Z,23.58
2017-09-04T06:01:16.251Z,23.56
2017-09-04T06:01:56.701Z,23.55
2017-09-04T06:02:37.162Z,23.58
2017-09-04T06:03:17.617Z,23.59
2017-09-04T06:03:58.073Z,23.55
2017-09-04T06:04:38.522Z,23.56
2017-09-04T06:05:18.969Z,23.62
2017-09-04T06:05:59.414Z,23.52
2017-09-04T06:06:39.850Z,23.56
2017-09-04T06:07:20.318Z,23.66
2017-09-04T06:08:00.758Z,23.58
2017-09-04T06:08:41.221Z,23.54
2017-09-04T06:09:21.678Z,23.56
2017-09-04T06:10:02.140Z,23.56
2017-09-04T06:10:42.591Z,23.58
2017-09-04T06:11:23.052Z,23.64
2017-09-04T06:12:03.499Z,23.59
2017-09-04T06:12:43.959Z,23.62
2017-09-04T06:13:24.413Z,23.69
2017-09-04T06:14:04.865Z,23.63
2017-09-04T06:14:45.313Z,23.69
2017-09-04T06:15:25.761Z,23.63
2017-09-04T06:16:06.232Z,23.58
2017-09-04T06:16:46.680Z,23.58
2017-09-04T06:17:27.137Z,23.67
2017-09-04T06:18:07.602Z,23.69
2017-09-04T06:18:48.044Z,23.64
2017-09-04T06:19:28.498Z,23.67
2017-09-04T06:20:08.966Z,23.64
2017-09-04T06:20:49.435Z,23.7
2017-09-04T06:21:29.899Z,23.64
2017-09-04T06:22:10.341Z,23.69
2017-09-04T06:22:50.796Z,23.67
2017-09-04T06:23:31.250Z,23.7
2017-09-04T06:24:11.698Z,23.67
2017-09-04T06:24:52.150Z,23.67
2017-09-04T06:25:32.611Z,23.64
2017-09-04T06:26:13.056Z,23.64
2017-09-04T06:26:53.514Z,23.63
2017-09-04T06:27:33.972Z,23.69
2017-09-04T06:28:14.427Z,23.69
2017-09-04T06:28:54.886Z,23.63
2017-09-04T06:29:35.344Z,23.62
2017-09-04T06:30:15.881Z,23.71
2017-09-04T06:30:56.329Z,23.71
2017-09-04T06:31:36.781Z,23.73
2017-09-04T06:32:17.236Z,23.69
2017-09-04T06:32:57.688Z,23.67
2017-09-04T06:33:38.153Z,23.58
2017-09-04T06:34:18.600Z,23.63
2017-09-04T06:34:59.053Z,23.71
2017-09-04T06:35:39.508Z,23.74
2017-09-04T06:36:19.961Z,23.7
2017-09-04T06:37:00.419Z,23.69
2017-09-04T06:37:40.881Z,23.73
2017-09-04T06:38:21.324Z,23.69
2017-09-04T06:39:01.759Z,23.73
2017-09-04T06:39:42.219Z,23.69
2017-09-04T06:40:22.759Z,23.71
2017-09-04T06:41:03.223Z,23.7
2017-09-04T06:41:43.671Z,23.84
2017-09-04T06:42:24.228Z,23.82
2017-09-04T06:43:04.673Z,23.73
2017-09-04T06:43:45.122Z,23.79
2017-09-04T06:44:25.669Z,23.82
2017-09-04T06:45:06.123Z,23.81
2017-09-04T06:45:46.583Z,23.85
2017-09-04T06:46:27.042Z,23.95
2017-09-04T06:47:07.489Z,23.94
2017-09-04T06:47:47.945Z,23.94
2017-09-04T06:48:28.398Z,23.91
2017-09-04T06:49:08.839Z,23.94
2017-09-04T06:49:49.288Z,23.94
2017-09-04T06:50:29.741Z,23.94
2017-09-04T06:51:10.202Z,23.89
2017-09-04T06:51:50.662Z,23.94
2017-09-04T06:52:31.128Z,23.94
2017-09-04T06:53:11.576Z,24.03
2017-09-04T06:53:52.024Z,24.06
2017-09-04T06:54:32.477Z,24.07
2017-09-04T06:56:19.955Z,24.1
2017-09-04T06:57:00.417Z,24.13
2017-09-04T06:57:40.884Z,24.16
2017-09-04T06:58:21.333Z,24.09
2017-09-04T06:59:01.773Z,24.09
2017-09-04T06:59:42.233Z,24.18
2017-09-04T07:00:22.681Z,24.19
2017-09-04T07:01:03.140Z,24.21
2017-09-04T07:01:43.590Z,24.24
2017-09-04T07:02:24.022Z,24.26
2017-09-04T07:03:04.473Z,24.29
2017-09-04T07:03:44.935Z,24.32
2017-09-04T07:04:25.400Z,24.31
2017-09-04T07:05:05.847Z,24.32
2017-09-04T07:05:46.301Z,24.36
2017-09-04T07:06:26.773Z,24.4
2017-09-04T07:07:07.206Z,24.41
2017-09-04T07:07:47.654Z,24.48
2017-09-04T07:08:28.109Z,24.46
2017-09-04T07:09:08.560Z,24.5
2017-09-04T07:09:49.018Z,24.44
2017-09-04T07:10:29.472Z,24.48
2017-09-04T07:11:09.929Z,24.59
2017-09-04T07:11:50.381Z,24.62
2017-09-04T07:12:30.840Z,24.56
2017-09-04T07:13:11.300Z,24.62
2017-09-04T07:13:51.754Z,24.66
2017-09-04T07:14:32.208Z,24.68
2017-09-04T07:15:12.664Z,24.68
2017-09-04T07:15:53.121Z,24.68
2017-09-04T07:16:33.575Z,24.71
2017-09-04T07:17:14.030Z,24.65
2017-09-04T07:17:54.479Z,24.74
2017-09-04T07:18:34.935Z,24.66
2017-09-04T07:19:15.392Z,24.65
2017-09-04T07:19:55.845Z,24.69
2017-09-04T07:20:36.309Z,24.71
2017-09-04T07:21:16.760Z,24.79
2017-09-04T07:21:57.214Z,24.77
2017-09-04T07:22:37.671Z,24.77
2017-09-04T07:23:18.123Z,24.77
2017-09-04T07:23:58.580Z,24.78
2017-09-04T07:24:39.030Z,24.78
2017-09-04T07:25:19.483Z,24.78
2017-09-04T07:25:59.945Z,24.77
2017-09-04T07:26:40.423Z,24.77
2017-09-04T07:27:20.851Z,24.78
2017-09-04T07:28:01.387Z,24.78
2017-09-04T07:28:41.748Z,24.75
2017-09-04T07:29:22.213Z,24.79
2017-09-04T07:30:02.666Z,24.77
2017-09-04T07:30:43.117Z,24.69
2017-09-04T07:31:23.573Z,24.81
2017-09-04T07:32:04.040Z,24.79
2017-09-04T07:32:44.509Z,24.82
2017-09-04T07:33:24.961Z,24.81
2017-09-04T07:34:05.413Z,24.84
2017-09-04T07:34:45.872Z,24.75
2017-09-04T07:35:26.371Z,24.85
2017-09-04T07:36:06.838Z,24.81
2017-09-04T07:36:47.284Z,24.85
2017-09-04T07:37:27.860Z,24.92
2017-09-04T07:38:08.313Z,24.89
2017-09-04T07:38:48.787Z,24.82
2017-09-04T07:39:29.233Z,24.93
2017-09-04T07:40:09.687Z,24.85
2017-09-04T07:40:50.141Z,24.84
2017-09-04T07:41:30.593Z,24.85
2017-09-04T07:42:11.040Z,24.93
2017-09-04T07:42:51.496Z,24.96
2017-09-04T07:43:31.933Z,24.97
2017-09-04T07:44:12.408Z,24.97
2017-09-04T07:44:52.865Z,25.03
2017-09-04T07:45:33.325Z,24.99
2017-09-04T07:46:13.783Z,24.93
2017-09-04T07:46:54.245Z,24.97
2017-09-04T07:47:34.721Z,24.97
2017-09-04T07:48:15.176Z,24.97
2017-09-04T07:48:55.627Z,24.97
2017-09-04T07:49:36.078Z,25.09
2017-09-04T07:50:16.527Z,24.97
2017-09-04T07:50:56.982Z,24.99
2017-09-04T07:51:37.436Z,25.04
2017-09-04T07:52:17.893Z,24.99
2017-09-04T07:52:58.341Z,25
2017-09-04T07:53:38.794Z,25.04
2017-09-04T07:54:19.258Z,25.04
2017-09-04T07:54:59.715Z,24.96
2017-09-04T07:55:40.170Z,24.99
2017-09-04T07:56:20.617Z,25.04
2017-09-04T07:57:01.077Z,25.09
2017-09-04T07:57:41.530Z,25.14
2017-09-04T07:58:22.020Z,25.15
2017-09-04T07:59:02.437Z,25.15
2017-09-04T07:59:42.897Z,25.14
2017-09-04T08:00:23.336Z,25.12
2017-09-04T08:01:03.795Z,25.24
2017-09-04T08:01:44.250Z,25.24
2017-09-04T08:02:24.701Z,25.18
2017-09-04T08:03:05.199Z,25.21
2017-09-04T08:03:45.641Z,25.18
2017-09-04T08:04:26.149Z,25.24
2017-09-04T08:05:06.607Z,25.18
2017-09-04T08:05:47.065Z,25.21
2017-09-04T08:06:27.523Z,25.24
2017-09-04T08:07:07.966Z,25.24
2017-09-04T08:07:48.420Z,25.22
2017-09-04T08:08:28.878Z,25.11
2017-09-04T08:09:09.332Z,25.22
2017-09-04T08:09:49.790Z,25.24
2017-09-04T08:10:30.253Z,25.18
2017-09-04T08:11:10.712Z,25.16
2017-09-04T08:11:51.159Z,25.14
2017-09-04T08:12:31.609Z,25.22
2017-09-04T08:13:12.054Z,25.29
2017-09-04T08:13:52.511Z,25.24
2017-09-04T08:14:32.968Z,25.31
2017-09-04T08:15:13.422Z,25.36
2017-09-04T08:15:53.870Z,25.34
2017-09-04T08:16:34.319Z,25.37
2017-09-04T08:17:14.781Z,25.36
2017-09-04T08:17:55.243Z,25.4
2017-09-04T08:18:35.696Z,25.37
2017-09-04T08:19:16.150Z,25.39
2017-09-04T08:19:56.612Z,25.37
2017-09-04T08:20:37.063Z,25.4
2017-09-04T08:21:17.530Z,25.4
2017-09-04T08:21:57.979Z,25.43
2017-09-04T08:22:38.428Z,25.39
2017-09-04T08:23:18.873Z,25.37
2017-09-04T08:23:59.326Z,25.31
2017-09-04T08:24:39.768Z,25.34
2017-09-04T08:25:20.201Z,25.34
2017-09-04T08:26:00.657Z,25.39
2017-09-04T08:26:41.135Z,25.37
2017-09-04T08:27:21.573Z,25.39
2017-09-04T08:28:02.021Z,25.37
2017-09-04T08:28:42.470Z,25.44
2017-09-04T08:29:22.930Z,25.48
2017-09-04T08:30:03.380Z,25.44
2017-09-04T08:30:43.834Z,25.56
2017-09-04T08:31:24.355Z,25.59
2017-09-04T08:32:04.806Z,25.56
2017-09-04T08:32:45.280Z,25.62
2017-09-04T08:33:25.712Z,25.63
2017-09-04T08:34:06.171Z,25.67
2017-09-04T08:34:46.625Z,25.7
2017-09-04T08:35:27.082Z,25.74
2017-09-04T08:36:07.530Z,25.74
2017-09-04T08:36:47.985Z,25.8
2017-09-04T08:37:28.443Z,25.85
2017-09-04T08:38:08.891Z,25.78
2017-09-04T08:38:49.336Z,25.8
2017-09-04T08:39:29.791Z,25.83
2017-09-04T08:40:10.242Z,25.86
2017-09-04T08:40:50.701Z,25.96
2017-09-04T08:41:31.155Z,25.8
2017-09-04T08:42:11.606Z,25.91
2017-09-04T08:42:52.060Z,25.89
2017-09-04T08:43:32.516Z,25.83
2017-09-04T08:44:12.980Z,25.78
2017-09-04T08:44:53.424Z,25.83
2017-09-04T08:45:33.872Z,25.81